Time;durP1;ratioP1;P1;durP2;ratioP2;P2;SDS_P1;SDS_P2;PMS_P1;PMS_P2;Temp;Humidity;BMP_temperature;BMP_pressure;BME280_temperature;BME280_humidity;BME280_pressure;Samples;Min_cycle;Max_cycle;Signal;HPM_P1;HPM_P2
2023/12/24 00:02:16;;;;;;;8.30;2.40;;;;;;;1.94;100.00;99137.13;216778;1296;140246;-87
2023/12/24 00:07:17;;;;;;;8.90;2.50;;;;;;;1.94;100.00;99143.11;217528;1294;96104;-88
2023/12/24 00:12:17;;;;;;;8.60;2.30;;;;;;;1.95;100.00;99148.26;216815;1295;139904;-90
2023/12/24 00:17:18;;;;;;;7.40;2.40;;;;;;;1.96;100.00;99145.73;217412;1296;138341;-87
2023/12/24 00:22:18;;;;;;;13.70;3.10;;;;;;;1.97;100.00;99145.34;216882;1294;139566;-87
2023/12/24 00:27:18;;;;;;;7.80;2.40;;;;;;;1.98;100.00;99146.09;217429;1294;138747;-88
2023/12/24 00:32:19;;;;;;;7.80;2.20;;;;;;;1.99;100.00;99150.84;216887;1295;139662;-85
2023/12/24 00:37:20;;;;;;;7.40;2.60;;;;;;;2.00;100.00;99153.73;217529;1296;96507;-87
2023/12/24 00:42:22;;;;;;;10.90;3.10;;;;;;;2.01;100.00;99156.38;216905;1295;139335;-88
2023/12/24 00:47:22;;;;;;;9.70;2.20;;;;;;;2.03;100.00;99163.33;217378;1294;138836;-86
2023/12/24 00:52:23;;;;;;;7.80;2.20;;;;;;;2.04;100.00;99165.69;216914;1295;140009;-88
2023/12/24 00:57:23;;;;;;;13.10;2.70;;;;;;;2.06;100.00;99167.51;217405;1296;139881;-87
2023/12/24 01:02:24;;;;;;;9.70;2.70;;;;;;;2.08;100.00;99168.34;216878;1294;140054;-87
2023/12/24 01:07:24;;;;;;;9.30;2.90;;;;;;;2.11;100.00;99166.54;217506;1294;95762;-87
2023/12/24 01:12:25;;;;;;;10.20;2.90;;;;;;;2.14;100.00;99172.28;216808;1295;139665;-88
2023/12/24 01:17:25;;;;;;;11.70;3.60;;;;;;;2.16;100.00;99171.02;217433;1296;139228;-88
2023/12/24 01:22:25;;;;;;;14.60;3.20;;;;;;;2.18;100.00;99166.96;216786;1294;139807;-87
2023/12/24 01:27:27;;;;;;;16.80;3.90;;;;;;;2.21;100.00;99166.48;217468;1295;138897;-87
2023/12/24 01:32:27;;;;;;;12.50;2.80;;;;;;;2.24;100.00;99170.80;216845;1295;139683;-88
2023/12/24 01:37:27;;;;;;;13.30;3.20;;;;;;;2.26;100.00;99172.02;217380;1295;96928;-87
2023/12/24 01:42:28;;;;;;;8.80;2.90;;;;;;;2.28;100.00;99177.35;216727;1296;140578;-87
2023/12/24 01:47:28;;;;;;;10.60;3.40;;;;;;;2.30;100.00;99179.04;217386;1296;138571;-88
2023/12/24 01:52:29;;;;;;;11.00;2.90;;;;;;;2.32;100.00;99184.65;216850;1294;139720;-87
2023/12/24 01:57:31;;;;;;;9.30;2.90;;;;;;;2.33;100.00;99183.05;217401;1295;139418;-87
2023/12/24 02:02:31;;;;;;;9.90;2.80;;;;;;;2.34;100.00;99184.94;216931;1295;139884;-88
2023/12/24 02:07:34;;;;;;;10.30;2.90;;;;;;;2.35;100.00;99183.56;217540;1295;96092;-89
2023/12/24 02:12:36;;;;;;;12.10;2.60;;;;;;;2.35;100.00;99176.97;216807;1294;139906;-88
2023/12/24 02:17:37;;;;;;;7.10;2.40;;;;;;;2.35;100.00;99183.17;217497;1295;138642;-88
2023/12/24 02:22:38;;;;;;;8.70;2.30;;;;;;;2.36;100.00;99177.07;216884;1295;139616;-87
2023/12/24 02:27:58;;;;;;;8.60;3.50;;;;;;;2.37;100.00;99174.69;217445;1295;139691;-88
2023/12/24 02:33:01;;;;;;;8.60;2.50;;;;;;;2.38;100.00;99176.40;216789;1295;139348;-87
2023/12/24 02:38:01;;;;;;;13.10;3.10;;;;;;;2.37;100.00;99171.52;217405;1295;138730;-88
2023/12/24 02:43:02;;;;;;;7.50;2.80;;;;;;;2.37;100.00;99173.91;216899;1294;139931;-87
2023/12/24 02:48:03;;;;;;;8.70;2.60;;;;;;;2.38;100.00;99180.91;217413;1295;139016;-87
2023/12/24 02:53:03;;;;;;;10.90;2.90;;;;;;;2.39;100.00;99184.90;216913;1295;139577;-87
2023/12/24 02:58:04;;;;;;;6.10;2.10;;;;;;;2.40;100.00;99192.53;217469;1295;139286;-87
2023/12/24 03:03:04;;;;;;;9.80;2.50;;;;;;;2.40;100.00;99191.74;216949;1296;139801;-87
2023/12/24 03:08:05;;;;;;;10.60;2.90;;;;;;;2.40;100.00;99193.45;217465;1295;138751;-87
2023/12/24 03:13:05;;;;;;;6.40;2.70;;;;;;;2.40;100.00;99188.49;217054;1295;140098;-89
2023/12/24 03:18:06;;;;;;;10.30;2.60;;;;;;;2.41;100.00;99196.42;217479;1294;138478;-87
2023/12/24 03:23:06;;;;;;;10.10;3.00;;;;;;;2.42;100.00;99193.65;216863;1295;139634;-88
2023/12/24 03:28:06;;;;;;;9.00;2.70;;;;;;;2.44;100.00;99202.00;217514;1294;138885;-88
2023/12/24 03:33:07;;;;;;;7.20;2.50;;;;;;;2.44;100.00;99198.52;216797;1296;139436;-87
2023/12/24 03:38:07;;;;;;;6.20;2.60;;;;;;;2.42;100.00;99192.19;217495;1295;139310;-88
2023/12/24 03:43:07;;;;;;;6.60;2.30;;;;;;;2.41;100.00;99191.46;216989;1295;140004;-88
2023/12/24 03:48:08;;;;;;;6.90;2.40;;;;;;;2.40;100.00;99198.73;217462;1295;138982;-87
2023/12/24 03:53:09;;;;;;;6.90;2.50;;;;;;;2.39;100.00;99201.19;216912;1295;139468;-88
2023/12/24 03:58:10;;;;;;;5.20;2.60;;;;;;;2.39;100.00;99194.05;217496;1295;139162;-87
2023/12/24 04:03:11;;;;;;;7.30;2.50;;;;;;;2.37;100.00;99190.44;216991;1295;140370;-88
2023/12/24 04:08:11;;;;;;;8.70;3.00;;;;;;;2.34;100.00;99199.20;217487;1295;138530;-89
2023/12/24 04:13:11;;;;;;;8.20;2.40;;;;;;;2.32;100.00;99197.29;217046;1295;139620;-87
2023/12/24 04:18:12;;;;;;;8.60;3.10;;;;;;;2.29;100.00;99200.02;217441;1295;138566;-87
2023/12/24 04:23:12;;;;;;;5.50;2.60;;;;;;;2.27;100.00;99201.28;216878;1295;141218;-88
2023/12/24 04:28:12;;;;;;;5.80;2.40;;;;;;;2.25;100.00;99202.95;217410;1298;139598;-89
2023/12/24 04:33:13;;;;;;;7.40;2.40;;;;;;;2.23;100.00;99194.98;216923;1295;208810;-87
2023/12/24 04:38:14;;;;;;;11.40;2.40;;;;;;;2.19;100.00;99186.89;217451;1294;138521;-88
2023/12/24 04:43:14;;;;;;;5.50;2.10;;;;;;;2.17;100.00;99188.64;217100;1294;139993;-90
2023/12/24 04:48:14;;;;;;;4.60;2.10;;;;;;;2.14;100.00;99184.68;217429;1295;138379;-89
2023/12/24 04:53:15;;;;;;;4.70;2.00;;;;;;;2.10;100.00;99177.52;216993;1295;139607;-88
2023/12/24 04:58:15;;;;;;;3.90;2.00;;;;;;;2.06;100.00;99177.42;217441;1296;138558;-88
2023/12/24 05:03:15;;;;;;;5.00;1.90;;;;;;;2.01;100.00;99181.43;216963;1296;139878;-86
2023/12/24 05:08:16;;;;;;;4.40;1.90;;;;;;;2.01;100.00;99186.38;217333;1295;139266;-88
2023/12/24 05:13:16;;;;;;;3.20;1.90;;;;;;;1.99;100.00;99198.41;217041;1295;139939;-89
2023/12/24 05:18:17;;;;;;;4.20;1.90;;;;;;;1.97;100.00;99203.79;217414;1295;138344;-89
2023/12/24 05:23:20;;;;;;;8.30;2.30;;;;;;;1.98;100.00;99213.89;216844;1295;139662;-88
2023/12/24 05:28:21;;;;;;;5.50;2.00;;;;;;;1.96;100.00;99219.66;217252;1295;138707;-88
2023/12/24 05:33:21;;;;;;;5.20;1.90;;;;;;;1.93;100.00;99218.36;216875;1295;139650;-88
2023/12/24 05:38:22;;;;;;;7.50;2.50;;;;;;;1.92;100.00;99208.48;217215;1295;139676;-88
2023/12/24 05:43:22;;;;;;;8.60;4.00;;;;;;;1.90;100.00;99213.31;216916;1295;139812;-89
2023/12/24 05:48:22;;;;;;;11.00;4.30;;;;;;;1.87;100.00;99216.95;217437;1295;139176;-88
2023/12/24 05:53:23;;;;;;;13.30;6.30;;;;;;;1.85;100.00;99209.38;216889;1295;139727;-89
2023/12/24 05:58:24;;;;;;;13.00;6.20;;;;;;;1.81;100.00;99204.88;217293;1295;138935;-88
2023/12/24 06:03:25;;;;;;;12.10;5.50;;;;;;;1.81;100.00;99201.98;216799;1293;140029;-88
2023/12/24 06:08:25;;;;;;;14.40;6.10;;;;;;;1.80;100.00;99203.36;217373;1296;139735;-88
2023/12/24 06:13:25;;;;;;;13.60;5.70;;;;;;;1.80;100.00;99210.49;217064;1295;139391;-88
2023/12/24 06:18:25;;;;;;;13.20;5.50;;;;;;;1.80;100.00;99215.53;217438;1293;138914;-89
2023/12/24 06:23:26;;;;;;;12.80;6.00;;;;;;;1.77;100.00;99215.23;216906;1295;139475;-89
2023/12/24 06:28:26;;;;;;;11.50;5.30;;;;;;;1.74;100.00;99217.14;217350;1295;138902;-90
2023/12/24 06:33:27;;;;;;;11.00;4.80;;;;;;;1.70;100.00;99222.31;216990;1298;141089;-88
2023/12/24 06:38:27;;;;;;;10.30;4.50;;;;;;;1.69;100.00;99227.25;217211;1295;139002;-89
2023/12/24 06:43:28;;;;;;;9.40;3.70;;;;;;;1.65;100.00;99223.41;216937;1294;140844;-89
2023/12/24 06:48:28;;;;;;;8.80;4.00;;;;;;;1.60;100.00;99222.91;217365;1296;138690;-89
2023/12/24 06:53:28;;;;;;;10.90;4.30;;;;;;;1.57;100.00;99225.45;216929;1295;139819;-89
2023/12/24 06:58:29;;;;;;;8.10;3.80;;;;;;;1.52;100.00;99223.51;217441;1293;139042;-88
2023/12/24 07:03:29;;;;;;;10.20;3.60;;;;;;;1.49;100.00;99225.86;216961;1295;139177;-87
2023/12/24 07:08:31;;;;;;;13.00;5.50;;;;;;;1.48;100.00;99239.38;217505;1295;138767;-87
2023/12/24 07:13:32;;;;;;;8.80;4.40;;;;;;;1.44;100.00;99236.26;216988;1296;139535;-87
2023/12/24 07:18:32;;;;;;;10.50;4.30;;;;;;;1.41;100.00;99235.91;217476;1295;138611;-88
2023/12/24 07:23:33;;;;;;;10.90;5.20;;;;;;;1.38;100.00;99228.94;216920;1296;139292;-89
2023/12/24 07:28:36;;;;;;;10.40;4.30;;;;;;;1.35;100.00;99226.77;217446;1296;139313;-88
2023/12/24 07:33:37;;;;;;;8.70;3.60;;;;;;;1.33;100.00;99224.55;216895;1295;140120;-89
2023/12/24 07:38:37;;;;;;;8.50;3.50;;;;;;;1.31;100.00;99220.31;217334;1295;139661;-89
2023/12/24 07:43:38;;;;;;;9.50;3.50;;;;;;;1.28;100.00;99222.46;217002;1296;139919;-91
2023/12/24 07:48:38;;;;;;;8.40;3.40;;;;;;;1.24;100.00;99221.41;217380;1296;139281;-89
2023/12/24 07:53:39;;;;;;;9.10;3.20;;;;;;;1.21;100.00;99220.39;216826;1296;140309;-89
2023/12/24 07:58:39;;;;;;;7.00;3.00;;;;;;;1.18;100.00;99223.04;217438;1295;138669;-89
2023/12/24 08:03:40;;;;;;;8.50;4.10;;;;;;;1.18;100.00;99225.75;216808;1295;139600;-89
2023/12/24 08:08:40;;;;;;;13.50;6.30;;;;;;;1.16;100.00;99223.06;217201;1296;138604;-89
2023/12/24 08:13:41;;;;;;;12.70;5.50;;;;;;;1.12;100.00;99209.30;216834;1295;139313;-90
2023/12/24 08:18:42;;;;;;;10.10;4.60;;;;;;;1.10;100.00;99199.27;217230;1295;138918;-89
2023/12/24 08:23:43;;;;;;;10.60;5.20;;;;;;;1.11;100.00;99196.11;216676;1296;139839;-89
2023/12/24 08:28:43;;;;;;;11.00;5.20;;;;;;;1.10;100.00;99188.89;217371;1295;139427;-89
2023/12/24 08:33:44;;;;;;;11.10;4.50;;;;;;;1.09;100.00;99183.16;216511;1295;139471;-88
2023/12/24 08:38:45;;;;;;;11.40;5.40;;;;;;;1.09;100.00;99184.00;217400;1296;138930;-89
2023/12/24 08:43:45;;;;;;;17.60;6.60;;;;;;;1.09;100.00;99181.77;216623;1296;139935;-90
2023/12/24 08:48:46;;;;;;;11.90;5.50;;;;;;;1.10;100.00;99175.13;217384;1296;96153;-89
2023/12/24 08:53:46;;;;;;;14.50;7.30;;;;;;;1.11;100.00;99171.75;216844;1298;140258;-89
2023/12/24 08:58:47;;;;;;;18.90;7.10;;;;;;;1.10;100.00;99168.55;217317;1295;138889;-88
2023/12/24 09:03:47;;;;;;;31.70;11.40;;;;;;;1.11;100.00;99159.67;216748;1295;140236;-89
2023/12/24 09:08:48;;;;;;;27.30;11.00;;;;;;;1.13;100.00;99151.90;217202;1296;139495;-90
2023/12/24 09:13:48;;;;;;;19.30;7.30;;;;;;;1.14;100.00;99146.13;216843;1296;141249;-89
2023/12/24 09:18:49;;;;;;;12.40;5.60;;;;;;;1.17;100.00;99146.60;217463;1295;95949;-90
2023/12/24 09:23:49;;;;;;;14.30;7.30;;;;;;;1.19;100.00;99144.17;216872;1295;140586;-90
2023/12/24 09:28:50;;;;;;;15.30;6.40;;;;;;;1.20;100.00;99146.55;217266;1296;139287;-88
2023/12/24 09:33:50;;;;;;;14.40;6.80;;;;;;;1.22;100.00;99141.56;216921;1295;140192;-88
2023/12/24 09:38:51;;;;;;;17.70;7.90;;;;;;;1.23;100.00;99125.07;217323;1295;138814;-89
2023/12/24 09:43:51;;;;;;;20.90;10.10;;;;;;;1.23;100.00;99116.04;216879;1295;139940;-88
2023/12/24 09:48:55;;;;;;;15.10;7.20;;;;;;;1.23;100.00;99101.70;217154;1296;336894;-89
2023/12/24 09:53:56;;;;;;;15.70;6.70;;;;;;;1.22;100.00;99091.84;216897;1296;139785;-88
2023/12/24 09:58:57;;;;;;;12.70;6.00;;;;;;;1.20;100.00;99078.80;217304;1298;140320;-89
2023/12/24 10:03:58;;;;;;;13.00;6.30;;;;;;;1.23;100.00;99066.55;216846;1296;140033;-89
2023/12/24 10:08:59;;;;;;;15.90;6.80;;;;;;;1.23;100.00;99062.30;217393;1295;138743;-89
2023/12/24 10:14:00;;;;;;;16.70;6.40;;;;;;;1.24;100.00;99065.74;216829;1295;139360;-88
2023/12/24 10:19:00;;;;;;;13.00;6.20;;;;;;;1.27;100.00;99047.52;217127;1295;96937;-89
2023/12/24 10:24:05;;;;;;;14.80;6.10;;;;;;;1.28;100.00;99048.96;216818;1298;139591;-89
2023/12/24 10:29:05;;;;;;;11.60;4.90;;;;;;;1.29;100.00;99042.10;217358;1298;138690;-91
2023/12/24 10:34:06;;;;;;;13.10;5.10;;;;;;;1.30;100.00;99027.95;216757;1298;139441;-89
2023/12/24 10:39:13;;;;;;;10.90;4.80;;;;;;;1.31;100.00;99015.52;217487;1296;139277;-89
2023/12/24 10:44:14;;;;;;;10.00;4.40;;;;;;;1.35;100.00;98998.55;216648;1296;139547;-89
2023/12/24 10:49:15;;;;;;;13.90;5.70;;;;;;;1.37;100.00;98984.83;217519;1296;96414;-90
2023/12/24 10:54:15;;;;;;;11.90;5.70;;;;;;;1.39;100.00;98975.20;216689;1295;139791;-91
2023/12/24 10:59:40;;;;;;;12.70;5.70;;;;;;;1.41;100.00;98955.41;217342;1295;138549;-90
2023/12/24 11:04:43;;;;;;;14.00;5.80;;;;;;;1.43;100.00;98954.70;216737;1298;140388;-90
2023/12/24 11:09:44;;;;;;;17.40;7.20;;;;;;;1.44;100.00;98939.33;217186;1297;139420;-89
2023/12/24 11:14:45;;;;;;;15.00;7.20;;;;;;;1.45;100.00;98923.84;217191;1296;139884;-89
2023/12/24 11:19:46;;;;;;;16.90;7.50;;;;;;;1.50;100.00;98918.64;216911;1298;139936;-91
2023/12/24 11:24:46;;;;;;;14.40;7.30;;;;;;;1.53;100.00;98911.48;217257;1296;150851;-90
2023/12/24 11:29:52;;;;;;;16.60;7.60;;;;;;;1.55;100.00;98903.17;216883;1298;140827;-89
2023/12/24 11:34:55;;;;;;;15.20;7.50;;;;;;;1.59;100.00;98895.67;217378;1295;138995;-91
2023/12/24 11:40:09;;;;;;;19.70;8.60;;;;;;;1.66;100.00;98887.84;216868;1298;140656;-91
2023/12/24 11:45:20;;;;;;;19.30;9.30;;;;;;;1.69;100.00;98874.34;217160;1298;138708;-90
2023/12/24 11:50:22;;;;;;;18.80;8.70;;;;;;;1.75;100.00;98860.98;216804;1296;141286;-87
2023/12/24 11:55:22;;;;;;;18.80;9.50;;;;;;;1.78;100.00;98859.27;217520;1295;95869;-91
2023/12/24 12:00:27;;;;;;;21.60;9.00;;;;;;;1.83;100.00;98854.17;216712;1295;141594;-90
2023/12/24 12:05:28;;;;;;;18.70;9.00;;;;;;;1.88;100.00;98838.85;217248;1295;138537;-91
2023/12/24 12:10:29;;;;;;;21.50;8.70;;;;;;;1.93;100.00;98829.27;216812;1295;139765;-91
2023/12/24 12:15:29;;;;;;;21.00;9.60;;;;;;;1.99;100.00;98829.92;217359;1298;139167;-89
2023/12/24 12:20:31;;;;;;;25.60;11.60;;;;;;;2.06;100.00;98815.50;216644;1295;139218;-91
2023/12/24 12:25:32;;;;;;;22.40;10.70;;;;;;;2.12;100.00;98809.80;217457;1295;96405;-89
2023/12/24 12:30:33;;;;;;;19.70;9.20;;;;;;;2.19;100.00;98820.45;216807;1296;140544;-90
2023/12/24 12:35:33;;;;;;;20.80;9.70;;;;;;;2.31;100.00;98806.73;217365;1295;138632;-89
2023/12/24 12:40:34;;;;;;;19.90;10.30;;;;;;;2.39;100.00;98789.88;216867;1296;139910;-90
2023/12/24 12:45:37;;;;;;;21.00;10.70;;;;;;;2.44;100.00;98800.44;217376;1295;138819;-89
2023/12/24 12:50:39;;;;;;;26.30;13.90;;;;;;;2.55;100.00;98796.89;216734;1295;139851;-89
2023/12/24 12:55:40;;;;;;;24.90;13.30;;;;;;;2.66;100.00;98784.42;217237;1295;96190;-91
2023/12/24 13:00:40;;;;;;;26.00;12.40;;;;;;;2.75;100.00;98787.90;216731;1295;139792;-89
2023/12/24 13:05:41;;;;;;;30.20;14.60;;;;;;;2.84;100.00;98780.27;217382;1296;139213;-89
2023/12/24 13:10:42;;;;;;;31.00;16.30;;;;;;;2.91;100.00;98759.52;216667;1295;231146;-90
2023/12/24 13:15:44;;;;;;;34.20;15.90;;;;;;;3.04;100.00;98754.34;217202;1297;140094;-92
2023/12/24 13:20:51;;;;;;;31.70;16.40;;;;;;;3.14;100.00;98748.17;216611;1295;139882;-88
2023/12/24 13:25:55;;;;;;;31.00;16.60;;;;;;;3.25;100.00;98752.05;217229;1295;139172;-89
2023/12/24 13:30:56;;;;;;;34.60;16.70;;;;;;;3.37;100.00;98742.42;216928;1295;140057;-89
2023/12/24 13:35:57;;;;;;;32.20;16.70;;;;;;;3.48;100.00;98743.41;217393;1296;140234;-87
2023/12/24 13:40:58;;;;;;;36.50;19.20;;;;;;;3.60;100.00;98736.17;216649;1295;139924;-88
2023/12/24 13:45:59;;;;;;;38.90;17.20;;;;;;;3.73;100.00;98734.99;217311;1293;139817;-88
2023/12/24 13:51:03;;;;;;;36.60;18.10;;;;;;;3.85;100.00;98725.87;216967;1295;139909;-89
2023/12/24 13:56:04;;;;;;;33.60;16.20;;;;;;;3.98;100.00;98724.84;217195;1295;141773;-89
2023/12/24 14:01:04;;;;;;;37.00;16.90;;;;;;;4.12;100.00;98715.48;216997;1295;140270;-89
2023/12/24 14:06:06;;;;;;;36.40;18.10;;;;;;;4.26;100.00;98717.08;217386;1295;139216;-89
2023/12/24 14:11:08;;;;;;;40.80;21.10;;;;;;;4.40;100.00;98701.94;216727;1295;141410;-88
2023/12/24 14:16:09;;;;;;;46.00;21.10;;;;;;;4.57;100.00;98706.05;217153;1296;138912;-89
2023/12/24 14:21:09;;;;;;;40.10;20.90;;;;;;;4.73;100.00;98710.66;216762;1296;139902;-89
2023/12/24 14:26:10;;;;;;;37.90;19.60;;;;;;;4.89;100.00;98696.59;217404;1295;139491;-91
2023/12/24 14:31:10;;;;;;;31.20;17.20;;;;;;;5.05;100.00;98687.80;216971;1296;139918;-91
2023/12/24 14:36:11;;;;;;;35.50;17.20;;;;;;;5.23;100.00;98685.16;217412;1295;139555;-89
2023/12/24 14:41:12;;;;;;;30.70;15.90;;;;;;;5.39;100.00;98680.30;216733;1295;140219;-89
2023/12/24 14:46:12;;;;;;;32.10;15.40;;;;;;;5.59;100.00;98680.05;217223;1295;139671;-89
2023/12/24 14:51:13;;;;;;;28.00;14.70;;;;;;;5.76;100.00;98672.23;216882;1295;139944;-91
2023/12/24 14:56:13;;;;;;;30.10;14.60;;;;;;;5.93;100.00;98667.14;217337;1296;139347;-93
2023/12/24 15:01:13;;;;;;;23.60;12.30;;;;;;;6.11;100.00;98656.08;216931;1295;139824;-90
2023/12/24 15:06:15;;;;;;;19.50;11.40;;;;;;;6.28;100.00;98650.53;217244;1295;140364;-89
2023/12/24 15:11:17;;;;;;;20.30;11.60;;;;;;;6.39;100.00;98649.50;216559;1295;141766;-89
2023/12/24 15:16:18;;;;;;;22.20;11.60;;;;;;;6.53;100.00;98642.70;217243;1294;140882;-89
2023/12/24 15:21:18;;;;;;;21.40;11.30;;;;;;;6.68;100.00;98638.67;216716;1295;140362;-90
2023/12/24 15:26:19;;;;;;;21.60;12.10;;;;;;;6.83;100.00;98622.16;217353;1295;139410;-90
2023/12/24 15:31:20;;;;;;;19.80;10.00;;;;;;;6.96;100.00;98616.18;216785;1295;140899;-89
2023/12/24 15:36:21;;;;;;;18.60;9.80;;;;;;;7.08;100.00;98617.00;217334;1296;139329;-91
2023/12/24 15:41:21;;;;;;;16.90;9.60;;;;;;;7.21;100.00;98620.70;216781;1296;140947;-90
2023/12/24 15:46:22;;;;;;;13.30;7.70;;;;;;;7.35;100.00;98620.39;217340;1294;138687;-89
2023/12/24 15:51:22;;;;;;;11.90;7.00;;;;;;;7.47;100.00;98614.05;216780;1295;139771;-92
2023/12/24 15:56:22;;;;;;;14.00;6.80;;;;;;;7.57;100.00;98620.73;217197;1296;138970;-89
2023/12/24 16:01:23;;;;;;;12.40;7.10;;;;;;;7.68;100.00;98617.77;216682;1294;140241;-91
2023/12/24 16:06:23;;;;;;;13.20;7.50;;;;;;;7.78;100.00;98609.80;217191;1295;140211;-89
2023/12/24 16:11:24;;;;;;;13.70;7.20;;;;;;;7.89;100.00;98609.65;216908;1295;140108;-93
2023/12/24 16:16:25;;;;;;;16.60;6.90;;;;;;;7.95;100.00;98593.71;217406;1295;139380;-89
2023/12/24 16:21:25;;;;;;;14.90;6.60;;;;;;;8.01;100.00;98576.14;216824;1294;140788;-92
2023/12/24 16:26:26;;;;;;;16.00;7.90;;;;;;;8.10;100.00;98578.64;217313;1296;139597;-91
2023/12/24 16:31:27;;;;;;;15.90;8.10;;;;;;;8.15;100.00;98563.96;216920;1294;140225;-90
2023/12/24 16:36:27;;;;;;;14.50;7.90;;;;;;;8.20;100.00;98564.55;217355;1295;139042;-91
2023/12/24 16:41:29;;;;;;;15.20;8.90;;;;;;;8.24;100.00;98555.21;216760;1294;140942;-90
2023/12/24 16:46:30;;;;;;;14.60;9.70;;;;;;;8.30;100.00;98544.66;217242;1295;139319;-88
2023/12/24 16:51:31;;;;;;;15.50;7.70;;;;;;;8.35;100.00;98540.85;216570;1296;140134;-90
2023/12/24 16:56:31;;;;;;;14.10;7.90;;;;;;;8.37;100.00;98524.08;217357;1295;139371;-88
2023/12/24 17:01:32;;;;;;;13.90;7.80;;;;;;;8.40;100.00;98546.83;216711;1295;139713;-89
2023/12/24 17:06:33;;;;;;;14.20;7.70;;;;;;;8.42;100.00;98565.05;217353;1295;97111;-91
2023/12/24 17:11:34;;;;;;;10.50;6.90;;;;;;;8.45;100.00;98549.73;216704;1294;139055;-90
2023/12/24 17:16:35;;;;;;;13.00;8.10;;;;;;;8.49;100.00;98537.41;217221;1295;139221;-91
2023/12/24 17:21:36;;;;;;;15.70;8.80;;;;;;;8.52;100.00;98531.80;216634;1295;139788;-86
2023/12/24 17:26:38;;;;;;;12.50;6.90;;;;;;;8.58;100.00;98523.36;217266;1295;139320;-89
2023/12/24 17:31:39;;;;;;;15.80;7.80;;;;;;;8.60;100.00;98533.84;216787;1295;140101;-91
2023/12/24 17:36:39;;;;;;;16.60;7.50;;;;;;;8.63;100.00;98512.97;217317;1295;139129;-89
2023/12/24 17:41:40;;;;;;;11.30;6.30;;;;;;;8.67;100.00;98500.23;216640;1295;140697;-90
2023/12/24 17:46:41;;;;;;;14.10;6.30;;;;;;;8.70;100.00;98503.08;217351;1295;138255;-88
2023/12/24 17:51:43;;;;;;;10.70;6.10;;;;;;;8.74;100.00;98486.66;216870;1295;140305;-91
2023/12/24 17:56:44;;;;;;;11.90;6.20;;;;;;;8.77;100.00;98474.24;217257;1295;139392;-88
2023/12/24 18:01:44;;;;;;;10.60;5.90;;;;;;;8.80;100.00;98472.70;216888;1295;140837;-93
2023/12/24 18:06:45;;;;;;;11.70;5.70;;;;;;;8.82;100.00;98465.94;217217;1294;139426;-89
2023/12/24 18:11:45;;;;;;;9.90;5.40;;;;;;;8.84;100.00;98461.45;216768;1295;139807;-93
2023/12/24 18:16:46;;;;;;;8.60;5.00;;;;;;;8.86;100.00;98475.21;217167;1296;139735;-87
2023/12/24 18:21:47;;;;;;;10.70;4.80;;;;;;;8.89;100.00;98482.30;216712;1295;139504;-88
2023/12/24 18:26:47;;;;;;;11.60;6.20;;;;;;;8.92;100.00;98472.23;217264;1295;139518;-90
2023/12/24 18:31:48;;;;;;;11.30;4.90;;;;;;;8.96;100.00;98469.13;216903;1295;139703;-88
2023/12/24 18:36:48;;;;;;;10.60;5.20;;;;;;;8.98;100.00;98460.94;217428;1295;138919;-91
2023/12/24 18:41:49;;;;;;;10.00;5.10;;;;;;;9.02;100.00;98460.17;216829;1295;139759;-91
2023/12/24 18:46:49;;;;;;;6.50;3.80;;;;;;;9.06;100.00;98458.86;217361;1294;138718;-92
2023/12/24 18:51:50;;;;;;;8.40;3.80;;;;;;;9.09;100.00;98449.26;216686;1295;140063;-88
2023/12/24 18:56:50;;;;;;;9.20;4.50;;;;;;;9.15;100.00;98422.19;217375;1295;138931;-91
2023/12/24 19:01:51;;;;;;;9.40;4.40;;;;;;;9.19;100.00;98413.27;216919;1293;139458;-94
2023/12/24 19:06:51;;;;;;;9.20;4.40;;;;;;;9.21;100.00;98407.12;217349;1295;138935;-92
2023/12/24 19:11:52;;;;;;;7.00;4.10;;;;;;;9.24;100.00;98407.33;216799;1295;140033;-92
2023/12/24 19:16:53;;;;;;;8.80;3.70;;;;;;;9.27;100.00;98400.52;217083;1295;139411;-91
2023/12/24 19:21:54;;;;;;;10.70;4.40;;;;;;;9.31;100.00;98402.34;216721;1293;140990;-92
2023/12/24 19:26:55;;;;;;;12.30;3.70;;;;;;;9.35;100.00;98398.83;217221;1295;139231;-91
2023/12/24 19:31:55;;;;;;;15.40;4.20;;;;;;;9.37;100.00;98383.58;216864;1294;140344;-88
2023/12/24 19:36:57;;;;;;;6.20;3.30;;;;;;;9.41;100.00;98376.69;217492;1295;95981;-93
2023/12/24 19:41:58;;;;;;;7.50;3.10;;;;;;;9.45;100.00;98382.04;216774;1295;139837;-91
2023/12/24 19:46:58;;;;;;;5.90;2.80;;;;;;;9.46;100.00;98371.74;217427;1295;139606;-87
2023/12/24 19:51:58;;;;;;;5.70;2.50;;;;;;;9.44;100.00;98361.19;216864;1294;140150;-87
2023/12/24 19:56:59;;;;;;;6.00;2.40;;;;;;;9.43;100.00;98355.39;217340;1295;139492;-90
2023/12/24 20:01:59;;;;;;;7.50;2.50;;;;;;;9.44;100.00;98349.80;216696;1294;140018;-92
2023/12/24 20:07:00;;;;;;;5.90;2.50;;;;;;;9.44;100.00;98356.06;217500;1295;96061;-90
2023/12/24 20:12:00;;;;;;;6.70;2.30;;;;;;;9.44;100.00;98355.29;216900;1295;140883;-93
2023/12/24 20:17:01;;;;;;;4.60;2.30;;;;;;;9.43;100.00;98358.94;217412;1295;138791;-93
2023/12/24 20:22:02;;;;;;;8.50;3.30;;;;;;;9.43;100.00;98338.45;216926;1296;141157;-91
2023/12/24 20:27:04;;;;;;;7.80;2.80;;;;;;;9.42;100.00;98330.77;217470;1295;139230;-94
2023/12/24 20:32:05;;;;;;;4.60;2.00;;;;;;;9.42;100.00;98328.04;216741;1294;140576;-93
2023/12/24 20:37:05;;;;;;;7.90;2.20;;;;;;;9.41;100.00;98333.86;217364;1295;96099;-91
2023/12/24 20:42:06;;;;;;;4.30;2.20;;;;;;;9.42;100.00;98338.08;216882;1295;139648;-90
2023/12/24 20:47:07;;;;;;;3.60;2.00;;;;;;;9.42;100.00;98330.23;217169;1295;139333;-92
2023/12/24 20:52:11;;;;;;;4.10;2.00;;;;;;;9.44;100.00;98322.66;216788;1295;139307;-93
2023/12/24 20:57:11;;;;;;;6.20;2.20;;;;;;;9.46;100.00;98320.27;217121;1294;139330;-92
2023/12/24 21:02:12;;;;;;;5.40;2.00;;;;;;;9.49;100.00;98317.48;216981;1295;139541;-93
2023/12/24 21:07:13;;;;;;;3.80;2.00;;;;;;;9.49;100.00;98307.13;217513;1293;96161;-93
2023/12/24 21:12:13;;;;;;;5.70;2.00;;;;;;;9.52;100.00;98308.00;216790;1295;139433;-95
2023/12/24 21:17:14;;;;;;;5.20;2.00;;;;;;;9.54;100.00;98312.27;217455;1295;138935;-89
2023/12/24 21:22:15;;;;;;;4.30;2.20;;;;;;;9.58;100.00;98312.21;216724;1295;140149;-87
2023/12/24 21:27:15;;;;;;;5.90;3.20;;;;;;;9.61;100.00;98303.84;217278;1296;140134;-94
2023/12/24 21:32:16;;;;;;;3.60;1.90;;;;;;;9.62;100.00;98292.90;216839;1295;140737;-94
2023/12/24 21:37:16;;;;;;;4.70;1.90;;;;;;;9.64;100.00;98289.80;217455;1295;97316;-91
2023/12/24 21:42:17;;;;;;;3.10;1.90;;;;;;;9.67;100.00;98286.63;216876;1296;140162;-92
2023/12/24 21:47:18;;;;;;;3.70;2.00;;;;;;;9.68;100.00;98277.50;217032;1296;362712;-93
2023/12/24 21:52:19;;;;;;;5.00;1.90;;;;;;;9.71;100.00;98280.57;216745;1296;139622;-92
2023/12/24 21:57:19;;;;;;;3.60;1.90;;;;;;;9.73;100.00;98287.91;217283;1294;138776;-90
2023/12/24 22:02:20;;;;;;;3.00;1.80;;;;;;;9.76;100.00;98294.21;216761;1294;140697;-91
2023/12/24 22:07:20;;;;;;;3.70;2.10;;;;;;;9.79;100.00;98294.06;217392;1296;96489;-91
2023/12/24 22:12:21;;;;;;;5.20;2.40;;;;;;;9.84;100.00;98285.09;216811;1296;139508;-93
2023/12/24 22:17:21;;;;;;;4.00;1.70;;;;;;;9.87;100.00;98291.70;217454;1295;138449;-93
2023/12/24 22:22:24;;;;;;;3.50;1.70;;;;;;;9.91;100.00;98292.02;216851;1295;139782;-91
2023/12/24 22:27:25;;;;;;;4.00;1.70;;;;;;;9.93;100.00;98291.49;217298;1295;138496;-93
2023/12/24 22:32:25;;;;;;;3.10;1.70;;;;;;;9.93;100.00;98289.05;216786;1295;140063;-93
2023/12/24 22:37:26;;;;;;;4.30;1.60;;;;;;;9.95;100.00;98292.39;217475;1295;95947;-93
2023/12/24 22:42:30;;;;;;;4.40;1.60;;;;;;;9.97;100.00;98284.29;216932;1294;140132;-95
2023/12/24 22:47:31;;;;;;;4.70;1.70;;;;;;;9.97;100.00;98282.63;217443;1295;139257;-92
2023/12/24 22:52:32;;;;;;;4.10;1.90;;;;;;;9.99;100.00;98274.66;216967;1295;139943;-93